Acampo, California
Current Conditions -  °F | °C
As of 12:38 AM on Sunday 23 Nov 2014 (Local Time) from KSCK Reporting Station
Moderate Fog Moderate Fog  
Wind Chill: 52°   Ceiling: 200
Heat Index: 52°   Visibility: 0.5mi
Dew Point: 52°   Wind: 13mph
Humidity: 100%   Direction: 350°N
Pressure: 30.24"   Gusts: NA
Location:  38.17°N, 121.28°W
Report Text: KSCK 230838Z AUTO 35011KT 1/2SM FG VV002 11/11 A3024 RMK AO2 RVRNO $
Loading
Personal Weather Stations






























Interactive Weather Map New forecast layout! Learn more

10-Day Weather Forecast

Advertisements
Track Severe Weather on mobile